createdAt,value
2023-02-19T00:00:02.032Z,86.61548078791377
2023-02-19T00:15:01.773Z,86.35353326144401
2023-02-19T00:30:02.532Z,86.6725301931402
2023-02-19T00:45:02.185Z,86.58554361356764
2023-02-19T01:00:01.953Z,86.56973025231464
2023-02-19T01:15:01.630Z,86.46915225074747
2023-02-19T01:30:02.430Z,86.44807247978166
2023-02-19T01:45:02.092Z,86.68826731138365
2023-02-19T02:00:01.768Z,85.98918851196348
2023-02-19T02:15:02.466Z,86.07742645397788
2023-02-19T02:30:02.208Z,85.49741707371263
2023-02-19T02:45:01.861Z,85.08736415079318
2023-02-19T03:00:02.536Z,84.84558805316578
2023-02-19T03:15:02.198Z,84.33316817828407
2023-02-19T03:30:01.981Z,82.08512506492188
2023-02-19T03:45:01.668Z,82.37025597645173
2023-02-19T04:00:02.301Z,82.01937303281994
2023-02-19T04:15:01.929Z,81.80620148362051
2023-02-19T04:30:01.700Z,82.52604669478414
2023-02-19T04:45:02.415Z,82.08809780522411
2023-02-19T05:00:02.046Z,81.31009473929011
2023-02-19T05:15:01.721Z,80.6699270550087
2023-02-19T05:30:01.980Z,80.37710029467503
2023-02-19T05:45:01.652Z,81.02126385151759
2023-02-19T06:00:02.355Z,79.56634450743236
2023-02-19T06:15:01.971Z,79.0064155271467
2023-02-19T06:30:01.649Z,79.28532843786127
2023-02-19T06:45:02.324Z,78.76726838266255
2023-02-19T07:00:02.020Z,77.38795301864806
2023-02-19T07:15:01.720Z,77.85833128732513
2023-02-19T07:30:02.435Z,77.69351200506127
2023-02-19T07:45:02.103Z,77.93243521147973
2023-02-19T08:00:01.784Z,78.13450638116386
2023-02-19T08:15:02.445Z,76.4187817909108
2023-02-19T08:30:02.201Z,78.62006058218792
2023-02-19T08:45:01.875Z,79.61908627675635
2023-02-19T09:00:02.560Z,79.90809474110897
2023-02-19T09:15:02.269Z,78.71417566184867
2023-02-19T09:30:01.994Z,79.18802549066245
2023-02-19T09:45:01.715Z,76.8087331403927
2023-02-19T10:00:02.314Z,77.68168328027316
2023-02-19T10:15:02.010Z,78.2671371549348
2023-02-19T10:30:01.767Z,74.44569020157537
2023-02-19T10:45:02.423Z,76.84356803884796
2023-02-19T11:00:02.069Z,72.39150274543543
2023-02-19T11:15:01.744Z,73.5520091145192
2023-02-19T11:30:01.681Z,74.71081638885838
2023-02-19T11:45:02.332Z,71.05254398948576
2023-02-19T12:00:01.978Z,74.23311367306627
2023-02-19T12:15:01.652Z,75.24126378954395
2023-02-19T12:30:02.429Z,68.80790318522837
2023-02-19T12:45:02.108Z,69.90791495948872
2023-02-19T13:00:01.801Z,73.68136020897838
2023-02-19T13:15:02.434Z,67.64649298433126
2023-02-19T13:30:02.252Z,65.41296630009319
2023-02-19T13:45:01.929Z,64.80261784919485
2023-02-19T14:00:01.591Z,63.792744053726956
2023-02-19T14:15:02.232Z,65.3532751593915
2023-02-19T14:30:01.947Z,63.02152973335223
2023-02-19T14:45:01.649Z,69.5949093364343
2023-02-19T15:00:02.324Z,72.26936626906175
2023-02-19T15:15:01.962Z,72.71484572144922
2023-02-19T15:30:01.758Z,73.22816674995093
2023-02-19T15:45:02.439Z,73.22317464890304
2023-02-19T16:00:02.246Z,71.90525184140861
2023-02-19T16:15:01.998Z,73.40458731163639
2023-02-19T16:30:01.745Z,73.6259095337486
2023-02-19T16:45:02.489Z,73.12465545125443
2023-02-19T17:00:02.134Z,73.73301743038878
2023-02-19T17:15:01.846Z,73.77449445323448
2023-02-19T17:30:02.567Z,73.63060878588696
2023-02-19T17:45:02.192Z,73.64994001308176
2023-02-19T18:00:01.843Z,73.5219822320626
2023-02-19T18:15:02.501Z,73.52587232638989
2023-02-19T18:30:02.291Z,73.8806097882695
2023-02-19T18:45:01.991Z,73.80470987637806
2023-02-19T19:00:01.644Z,74.10892329152291
2023-02-19T19:15:02.267Z,74.20472916244422
2023-02-19T19:30:01.980Z,74.07780474202954
2023-02-19T19:45:01.755Z,74.48650952902695
2023-02-19T20:00:02.428Z,74.47017402907191
2023-02-19T20:15:02.070Z,74.47329998093872
2023-02-19T20:30:01.794Z,74.64587875727284
2023-02-19T20:45:02.456Z,74.95327653452509
2023-02-19T21:00:02.160Z,75.18064549013593
2023-02-19T21:15:01.792Z,74.61979068847504
2023-02-19T21:30:02.461Z,74.0271683458376
2023-02-19T21:45:02.113Z,74.33791919381467
2023-02-19T22:00:01.777Z,74.37379012770258
2023-02-19T22:15:02.442Z,74.40018071798542
2023-02-19T22:30:02.282Z,74.62896059082298
2023-02-19T22:45:01.924Z,75.24595128588106
2023-02-19T23:00:01.598Z,75.79582109356595
2023-02-19T23:15:02.216Z,76.14773654371798
2023-02-19T23:30:01.986Z,75.85095563787031
2023-02-19T23:45:01.673Z,75.48050611916517
